createdAt,value
2022-10-11T00:00:55.183Z,13.65
2022-10-11T00:03:22.671Z,11.75
2022-10-11T00:05:50.059Z,12.23
2022-10-11T00:08:17.429Z,14.82
2022-10-11T00:10:44.932Z,10.35
2022-10-11T00:13:12.357Z,14.98
2022-10-11T00:15:40.855Z,15.10
2022-10-11T00:18:09.207Z,14.27
2022-10-11T00:20:36.631Z,18.67
2022-10-11T00:23:04.979Z,10.70
2022-10-11T00:25:33.058Z,13.02
2022-10-11T00:28:00.462Z,19.60
2022-10-11T00:30:28.065Z,19.52
2022-10-11T00:32:55.895Z,13.00
2022-10-11T00:35:23.261Z,13.73
2022-10-11T00:37:50.653Z,16.15
2022-10-11T00:40:21.157Z,13.27
2022-10-11T00:42:49.551Z,15.57
2022-10-11T00:45:39.643Z,14.88
2022-10-11T00:48:27.476Z,16.27
2022-10-11T00:50:58.534Z,14.38
2022-10-11T00:53:30.390Z,15.98
2022-10-11T00:58:36.977Z,15.88
2022-10-11T01:01:05.170Z,15.93
2022-10-11T01:03:35.981Z,14.25
2022-10-11T01:06:04.360Z,16.33
2022-10-11T01:08:34.129Z,18.02
2022-10-11T01:11:03.188Z,17.92
2022-10-11T01:13:52.179Z,15.20
2022-10-11T01:16:49.975Z,16.00
2022-10-11T01:19:58.952Z,15.43
2022-10-11T01:22:48.001Z,13.48
2022-10-11T01:25:26.888Z,14.23
2022-10-11T01:28:19.034Z,15.63
2022-10-11T01:30:47.287Z,12.43
2022-10-11T01:33:44.709Z,15.40
2022-10-11T01:36:32.591Z,14.23
2022-10-11T01:39:10.747Z,12.63
2022-10-11T01:41:47.458Z,12.95
2022-10-11T01:44:15.539Z,13.35
2022-10-11T01:46:43.299Z,11.48
2022-10-11T01:49:10.995Z,12.07
2022-10-11T01:51:47.498Z,13.15
2022-10-11T01:55:08.246Z,11.63
2022-10-11T01:58:30.302Z,13.30
2022-10-11T02:01:32.733Z,10.63
2022-10-11T02:04:22.428Z,13.73
2022-10-11T02:07:16.900Z,9.98
2022-10-11T02:10:11.491Z,14.07
2022-10-11T02:12:57.713Z,11.48
2022-10-11T02:15:30.967Z,12.73
2022-10-11T02:18:06.349Z,11.10
2022-10-11T02:20:37.248Z,12.98
2022-10-11T02:23:14.997Z,14.83
2022-10-11T02:25:45.101Z,12.45
2022-10-11T02:28:25.323Z,12.05
2022-10-11T02:30:55.021Z,12.40
2022-10-11T02:33:37.294Z,14.18
2022-10-11T02:36:19.515Z,10.68
2022-10-11T02:38:57.243Z,12.05
2022-10-11T02:41:38.465Z,11.70
2022-10-11T02:44:26.207Z,10.95
2022-10-11T02:46:54.800Z,12.23
2022-10-11T02:49:22.339Z,10.43
2022-10-11T02:51:49.724Z,14.50
2022-10-11T02:54:17.409Z,13.32
2022-10-11T02:56:44.765Z,13.10
2022-10-11T02:59:12.143Z,10.43
2022-10-11T03:01:39.802Z,12.38
2022-10-11T03:04:07.216Z,12.43
2022-10-11T03:06:34.755Z,12.43
2022-10-11T03:09:02.122Z,10.70
2022-10-11T03:11:29.561Z,9.80
2022-10-11T03:13:57.053Z,11.70
2022-10-11T03:16:24.511Z,8.13
2022-10-11T03:18:51.858Z,10.75
2022-10-11T03:21:19.379Z,11.73
2022-10-11T03:23:46.771Z,6.65
2022-10-11T03:26:14.141Z,10.25
2022-10-11T03:28:41.604Z,10.35
2022-10-11T03:31:09.069Z,10.35
2022-10-11T03:33:36.793Z,7.63
2022-10-11T03:36:05.035Z,9.25
2022-10-11T03:38:33.268Z,10.60
2022-10-11T03:41:00.667Z,7.70
2022-10-11T03:43:28.101Z,10.68
2022-10-11T03:45:55.622Z,10.57
2022-10-11T03:48:23.012Z,11.25
2022-10-11T03:50:50.523Z,9.45
2022-10-11T03:53:18.006Z,9.65
2022-10-11T03:55:45.460Z,6.57
2022-10-11T03:58:12.866Z,9.15
2022-10-11T04:00:40.303Z,10.27
2022-10-11T04:03:07.713Z,9.43
2022-10-11T04:05:35.125Z,8.55
2022-10-11T04:08:02.647Z,12.23
2022-10-11T04:10:31.483Z,6.28
2022-10-11T04:12:58.847Z,6.90
2022-10-11T04:15:26.246Z,9.73
2022-10-11T04:17:53.598Z,7.65
2022-10-11T04:20:20.992Z,10.05
2022-10-11T04:22:48.461Z,8.30
2022-10-11T04:25:15.918Z,10.45
2022-10-11T04:27:43.295Z,8.85
2022-10-11T04:30:11.889Z,8.95
2022-10-11T04:32:39.357Z,9.65
2022-10-11T04:35:07.127Z,10.38
2022-10-11T04:37:35.192Z,10.27
2022-10-11T04:40:03.678Z,10.30
2022-10-11T04:42:31.161Z,8.02
2022-10-11T04:44:58.652Z,6.10
2022-10-11T04:47:26.070Z,8.45
2022-10-11T04:49:53.415Z,7.95
2022-10-11T04:52:25.399Z,6.28
2022-10-11T04:54:53.307Z,7.13
2022-10-11T04:57:20.675Z,6.03
2022-10-11T04:59:50.219Z,5.65
2022-10-11T05:02:18.171Z,6.55
2022-10-11T05:04:46.695Z,7.18
2022-10-11T05:07:14.429Z,7.05
2022-10-11T05:09:41.804Z,6.95
2022-10-11T05:12:10.592Z,7.82
2022-10-11T05:14:37.990Z,7.07
2022-10-11T05:17:05.792Z,7.40
2022-10-11T05:19:34.328Z,8.70
2022-10-11T05:22:01.695Z,6.07
2022-10-11T05:24:29.063Z,6.28
2022-10-11T05:26:59.803Z,8.55
2022-10-11T05:29:30.559Z,6.57
2022-10-11T05:31:57.944Z,5.85
2022-10-11T05:34:25.413Z,6.95
2022-10-11T05:36:52.812Z,7.38
2022-10-11T05:39:20.248Z,6.30
2022-10-11T05:41:48.848Z,6.22
2022-10-11T05:44:16.340Z,10.38
2022-10-11T05:46:43.725Z,9.77
2022-10-11T05:49:12.237Z,8.43
2022-10-11T05:51:39.757Z,8.82
2022-10-11T05:54:07.134Z,10.43
2022-10-11T05:56:34.609Z,7.47
2022-10-11T05:59:02.700Z,8.30
2022-10-11T06:01:30.198Z,8.90
2022-10-11T06:03:57.769Z,9.77
2022-10-11T06:06:25.170Z,7.03
2022-10-11T06:08:52.513Z,8.40
2022-10-11T06:11:25.787Z,10.73
2022-10-11T06:13:57.918Z,10.52
2022-10-11T06:16:26.850Z,9.13
2022-10-11T06:18:56.723Z,11.05
2022-10-11T06:21:24.875Z,11.93
2022-10-11T06:23:56.809Z,11.57
2022-10-11T06:26:28.047Z,11.05
2022-10-11T06:28:56.640Z,11.07
2022-10-11T06:31:24.834Z,12.43
2022-10-11T06:33:52.405Z,11.77
2022-10-11T06:36:19.837Z,10.77
2022-10-11T06:38:47.360Z,9.55
2022-10-11T06:41:23.907Z,10.75
2022-10-11T06:43:51.890Z,12.85
2022-10-11T06:46:23.133Z,16.65
2022-10-11T06:48:51.440Z,15.13
2022-10-11T06:52:22.897Z,13.80
2022-10-11T06:54:50.587Z,11.07
2022-10-11T06:57:18.268Z,10.13
2022-10-11T06:59:45.630Z,11.07
2022-10-11T07:02:13.059Z,11.95
2022-10-11T07:04:40.441Z,13.02
2022-10-11T07:07:07.907Z,15.50
2022-10-11T07:09:35.381Z,18.05
2022-10-11T07:12:02.859Z,12.20
2022-10-11T07:14:30.262Z,12.38
2022-10-11T07:16:57.641Z,16.08
2022-10-11T07:19:26.090Z,12.00
2022-10-11T07:21:53.491Z,10.75
2022-10-11T07:24:20.905Z,13.30
2022-10-11T07:26:48.371Z,13.77
2022-10-11T07:29:16.062Z,16.80
2022-10-11T07:31:44.112Z,18.08
2022-10-11T07:34:13.076Z,19.08
2022-10-11T07:36:40.635Z,23.45
2022-10-11T07:39:08.818Z,19.35
2022-10-11T07:41:39.677Z,20.08
2022-10-11T07:44:09.354Z,20.70
2022-10-11T07:46:37.933Z,21.13
2022-10-11T07:49:05.509Z,20.77
2022-10-11T07:51:33.349Z,20.08
2022-10-11T07:54:07.539Z,18.10
2022-10-11T07:56:36.897Z,24.75
2022-10-11T07:59:04.518Z,18.90
2022-10-11T08:01:33.072Z,25.77
2022-10-11T08:04:00.849Z,25.83
2022-10-11T08:06:32.431Z,22.17
2022-10-11T08:09:02.233Z,24.05
2022-10-11T08:11:37.650Z,24.33
2022-10-11T08:14:11.116Z,20.50
2022-10-11T08:16:40.257Z,23.38
2022-10-11T08:19:07.949Z,25.10
2022-10-11T08:21:35.929Z,22.15
2022-10-11T08:24:05.442Z,20.92
2022-10-11T08:26:34.253Z,19.63
2022-10-11T08:29:05.228Z,22.45
2022-10-11T08:31:35.346Z,20.20
2022-10-11T08:34:02.814Z,23.02
2022-10-11T08:36:30.271Z,21.63
2022-10-11T08:38:58.696Z,22.77
2022-10-11T08:41:41.293Z,18.90
2022-10-11T08:44:26.752Z,21.02
2022-10-11T08:47:30.106Z,21.17
2022-10-11T08:52:51.177Z,18.25
2022-10-11T08:55:43.947Z,19.23
2022-10-11T08:58:18.548Z,14.98
2022-10-11T09:00:50.293Z,18.10
2022-10-11T09:06:28.121Z,17.38
2022-10-11T09:09:21.834Z,13.27
2022-10-11T09:12:05.459Z,19.90
2022-10-11T09:14:48.032Z,21.50
2022-10-11T09:18:04.162Z,28.90
2022-10-11T09:21:25.457Z,31.75
2022-10-11T09:24:13.523Z,25.02
2022-10-11T09:26:56.083Z,15.95
2022-10-11T09:29:58.336Z,13.52
2022-10-11T09:32:40.165Z,16.80
2022-10-11T09:35:20.971Z,17.33
2022-10-11T09:37:59.149Z,17.67
2022-10-11T09:41:01.763Z,15.68
2022-10-11T09:43:29.644Z,15.80
2022-10-11T09:45:57.048Z,12.68
2022-10-11T09:48:33.077Z,12.98
2022-10-11T09:51:12.210Z,13.18
2022-10-11T09:54:14.225Z,14.75
2022-10-11T09:56:46.050Z,16.63
2022-10-11T09:59:30.288Z,17.90
2022-10-11T10:02:21.094Z,11.55
2022-10-11T10:05:18.323Z,11.68
2022-10-11T10:08:09.583Z,11.05
2022-10-11T10:10:43.166Z,16.35
2022-10-11T10:13:25.543Z,15.27
2022-10-11T10:15:57.860Z,12.32
2022-10-11T10:18:42.458Z,13.52
2022-10-11T10:21:14.933Z,12.30
2022-10-11T10:23:43.305Z,12.95
2022-10-11T10:26:24.279Z,13.73
2022-10-11T10:29:10.941Z,13.18
2022-10-11T10:34:58.658Z,12.13
2022-10-11T10:37:45.746Z,12.70
2022-10-11T10:40:22.764Z,12.25
2022-10-11T10:42:50.870Z,13.38
2022-10-11T10:45:24.812Z,11.85
2022-10-11T10:49:18.771Z,11.50
2022-10-11T10:51:39.553Z,9.93
2022-10-11T10:54:31.229Z,8.98
2022-10-11T10:57:05.361Z,12.18
2022-10-11T10:59:51.590Z,10.82
2022-10-11T11:02:48.517Z,10.70
2022-10-11T11:05:48.440Z,11.48
2022-10-11T11:08:25.238Z,10.68
2022-10-11T11:11:40.771Z,16.23
2022-10-11T11:14:49.808Z,15.93
2022-10-11T11:17:29.552Z,15.43
2022-10-11T11:20:21.171Z,15.20
2022-10-11T11:23:06.783Z,15.00
2022-10-11T11:25:56.082Z,10.35
2022-10-11T11:28:49.879Z,11.93
2022-10-11T11:31:51.911Z,11.00
2022-10-11T11:37:20.797Z,12.57
2022-10-11T11:39:52.597Z,10.45
2022-10-11T11:42:55.611Z,12.32
2022-10-11T11:45:29.570Z,10.32
2022-10-11T11:48:10.594Z,12.85
2022-10-11T11:50:43.810Z,9.60
2022-10-11T11:53:35.523Z,9.15
2022-10-11T11:56:31.725Z,11.55
2022-10-11T11:59:27.038Z,11.60
2022-10-11T12:02:15.484Z,12.07
2022-10-11T12:04:45.977Z,13.05
2022-10-11T12:07:19.487Z,13.27
2022-10-11T12:09:52.730Z,12.50
2022-10-11T12:12:37.535Z,9.63
2022-10-11T12:15:26.649Z,14.85
2022-10-11T12:17:57.373Z,11.18
2022-10-11T12:20:37.931Z,12.17
2022-10-11T12:23:28.120Z,10.88
2022-10-11T12:26:29.460Z,11.48
2022-10-11T12:29:18.274Z,12.23
2022-10-11T12:32:14.097Z,10.80
2022-10-11T12:34:45.080Z,12.38
2022-10-11T12:37:18.984Z,11.40
2022-10-11T12:39:49.278Z,9.85
2022-10-11T12:42:36.828Z,14.32
2022-10-11T12:45:13.207Z,15.13
2022-10-11T12:47:54.115Z,11.15
2022-10-11T12:50:37.524Z,11.90
2022-10-11T12:53:28.293Z,11.68
2022-10-11T12:56:07.345Z,12.50
2022-10-11T12:58:46.289Z,8.13
2022-10-11T13:01:25.249Z,10.48
2022-10-11T13:04:10.946Z,11.43
2022-10-11T13:06:50.290Z,12.15
2022-10-11T13:09:29.714Z,11.02
2022-10-11T13:12:19.287Z,12.50
2022-10-11T13:15:09.108Z,11.50
2022-10-11T13:17:39.867Z,13.20
2022-10-11T13:20:17.476Z,13.27
2022-10-11T13:25:23.656Z,11.02
2022-10-11T13:27:54.463Z,9.57
2022-10-11T13:30:31.724Z,13.20
2022-10-11T13:33:01.652Z,14.65
2022-10-11T13:35:34.314Z,12.23
2022-10-11T13:38:02.997Z,13.82
2022-10-11T13:40:31.780Z,12.70
2022-10-11T13:43:00.323Z,11.00
2022-10-11T13:45:32.682Z,9.27
2022-10-11T13:48:00.336Z,13.48
2022-10-11T13:50:35.349Z,12.65
2022-10-11T13:53:11.521Z,9.45
2022-10-11T13:55:41.984Z,10.65
2022-10-11T13:58:19.091Z,9.82
2022-10-11T14:01:00.073Z,10.85
2022-10-11T14:04:02.631Z,9.80
2022-10-11T14:06:56.171Z,11.63
2022-10-11T14:09:34.683Z,13.63
2022-10-11T14:12:30.883Z,8.82
2022-10-11T14:15:05.153Z,10.95
2022-10-11T14:17:44.137Z,10.60
2022-10-11T14:20:29.533Z,9.40
2022-10-11T14:23:00.090Z,12.95
2022-10-11T14:25:28.622Z,10.13
2022-10-11T14:27:56.290Z,9.15
2022-10-11T14:30:27.641Z,10.82
2022-10-11T14:35:32.788Z,15.25
2022-10-11T14:38:00.635Z,11.35
2022-10-11T14:40:30.999Z,11.35
2022-10-11T14:42:58.722Z,14.20
2022-10-11T14:45:26.166Z,10.20
2022-10-11T14:47:53.592Z,12.00
2022-10-11T14:50:32.546Z,10.95
2022-10-11T14:53:00.206Z,10.23
2022-10-11T14:55:29.035Z,12.23
2022-10-11T14:57:56.978Z,12.57
2022-10-11T15:00:28.159Z,10.93
2022-10-11T15:02:57.135Z,12.93
2022-10-11T15:05:32.811Z,10.82
2022-10-11T15:08:06.645Z,9.73
2022-10-11T15:10:38.526Z,12.88
2022-10-11T15:13:07.422Z,9.38
2022-10-11T15:15:40.563Z,10.77
2022-10-11T15:18:13.336Z,9.57
2022-10-11T15:20:44.917Z,10.63
2022-10-11T15:25:41.754Z,11.95
2022-10-11T15:28:25.720Z,10.20
2022-10-11T15:30:54.521Z,11.52
2022-10-11T15:33:23.013Z,11.35
2022-10-11T15:35:50.448Z,11.07
2022-10-11T15:38:25.609Z,10.85
2022-10-11T15:40:54.098Z,11.10
2022-10-11T15:43:24.742Z,10.02
2022-10-11T15:45:53.071Z,9.55
2022-10-11T15:48:22.618Z,13.25
2022-10-11T15:50:50.918Z,11.90
2022-10-11T15:53:28.406Z,17.63
2022-10-11T15:56:01.515Z,9.02
2022-10-11T15:58:36.227Z,11.65
2022-10-11T16:01:11.608Z,8.68
2022-10-11T16:03:39.653Z,11.68
2022-10-11T16:06:08.359Z,17.65
2022-10-11T16:08:36.673Z,13.15
2022-10-11T16:11:07.098Z,9.40
2022-10-11T16:13:35.531Z,9.10
2022-10-11T16:16:06.921Z,14.75
2022-10-11T16:18:36.302Z,10.90
2022-10-11T16:21:13.387Z,12.00
2022-10-11T16:23:40.977Z,11.65
2022-10-11T16:26:13.640Z,10.38
2022-10-11T16:28:41.960Z,8.00
2022-10-11T16:31:14.698Z,9.68
2022-10-11T16:33:48.222Z,10.07
2022-10-11T16:36:36.969Z,10.90
2022-10-11T16:39:16.297Z,10.00
2022-10-11T16:41:44.890Z,10.68
2022-10-11T16:44:19.112Z,11.90
2022-10-11T16:46:48.567Z,9.45
2022-10-11T16:49:25.792Z,12.30
2022-10-11T16:51:57.012Z,10.73
2022-10-11T16:54:30.244Z,11.27
2022-10-11T16:56:59.165Z,11.70
2022-10-11T16:59:27.059Z,12.68
2022-10-11T17:01:55.566Z,12.63
2022-10-11T17:04:23.773Z,14.10
2022-10-11T17:06:51.692Z,12.38
2022-10-11T17:09:21.171Z,9.68
2022-10-11T17:11:48.597Z,9.57
2022-10-11T17:14:16.547Z,11.23
2022-10-11T17:16:44.977Z,9.57
2022-10-11T17:19:15.520Z,10.40
2022-10-11T17:21:43.155Z,7.88
2022-10-11T17:24:10.682Z,10.93
2022-10-11T17:26:38.392Z,10.85
2022-10-11T17:29:05.899Z,9.82
2022-10-11T17:31:33.341Z,12.35
2022-10-11T17:34:01.329Z,9.88
2022-10-11T17:36:34.589Z,12.32
2022-10-11T17:39:07.683Z,15.00
2022-10-11T17:41:36.217Z,11.85
2022-10-11T17:44:04.653Z,14.02
2022-10-11T17:46:32.760Z,10.88
2022-10-11T17:49:04.746Z,11.75
2022-10-11T17:51:34.594Z,8.93
2022-10-11T17:54:02.808Z,8.15
2022-10-11T17:56:35.209Z,15.20
2022-10-11T17:59:05.879Z,10.98
2022-10-11T18:01:33.520Z,7.60
2022-10-11T18:04:04.866Z,11.85
2022-10-11T18:06:39.031Z,12.20
2022-10-11T18:09:07.204Z,12.07
2022-10-11T18:11:35.105Z,11.75
2022-10-11T18:14:05.168Z,14.35
2022-10-11T18:16:33.273Z,15.85
2022-10-11T18:19:04.519Z,10.20
2022-10-11T18:21:34.676Z,15.90
2022-10-11T18:24:08.028Z,18.92
2022-10-11T18:26:35.478Z,16.65
2022-10-11T18:29:04.603Z,13.55
2022-10-11T18:31:34.982Z,9.98
2022-10-11T18:34:05.480Z,12.65
2022-10-11T18:36:33.217Z,12.20
2022-10-11T18:39:06.256Z,11.60
2022-10-11T18:41:35.696Z,15.95
2022-10-11T18:44:07.296Z,13.93
2022-10-11T18:46:36.352Z,17.90
2022-10-11T18:49:04.851Z,11.02
2022-10-11T18:51:39.801Z,17.58
2022-10-11T18:54:10.931Z,14.93
2022-10-11T18:56:39.753Z,14.35
2022-10-11T18:59:08.180Z,14.07
2022-10-11T19:01:41.401Z,14.50
2022-10-11T19:04:11.167Z,13.95
2022-10-11T19:06:43.493Z,13.88
2022-10-11T19:09:17.644Z,12.10
2022-10-11T19:11:45.042Z,15.90
2022-10-11T19:14:16.395Z,12.07
2022-10-11T19:16:49.557Z,13.75
2022-10-11T19:19:20.394Z,13.93
2022-10-11T19:21:48.754Z,13.77
2022-10-11T19:24:20.374Z,17.92
2022-10-11T19:26:48.638Z,15.07
2022-10-11T19:29:20.002Z,15.25
2022-10-11T19:31:55.141Z,13.65
2022-10-11T19:34:27.403Z,14.93
2022-10-11T19:36:56.446Z,13.75
2022-10-11T19:39:25.422Z,14.38
2022-10-11T19:41:52.927Z,13.75
2022-10-11T19:44:20.632Z,13.90
2022-10-11T19:46:52.461Z,10.32
2022-10-11T19:49:24.808Z,10.45
2022-10-11T19:51:53.569Z,11.65
2022-10-11T19:54:21.156Z,15.43
2022-10-11T19:56:48.654Z,11.35
2022-10-11T19:59:16.459Z,12.95
2022-10-11T20:01:48.104Z,13.02
2022-10-11T20:04:50.976Z,13.35
2022-10-11T20:07:09.363Z,12.10
2022-10-11T20:09:36.910Z,12.02
2022-10-11T20:12:04.676Z,11.63
2022-10-11T20:14:32.450Z,14.10
2022-10-11T20:16:59.876Z,12.15
2022-10-11T20:19:31.176Z,12.18
2022-10-11T20:22:01.164Z,11.63
2022-10-11T20:24:32.722Z,10.95
2022-10-11T20:27:03.976Z,13.90
2022-10-11T20:29:31.659Z,13.02
2022-10-11T20:31:59.123Z,12.18
2022-10-11T20:34:27.633Z,12.02
2022-10-11T20:36:55.108Z,12.02
2022-10-11T20:39:23.605Z,14.45
2022-10-11T20:41:51.112Z,12.68
2022-10-11T20:44:18.518Z,10.98
2022-10-11T20:46:46.903Z,10.10
2022-10-11T20:49:14.646Z,10.30
2022-10-11T20:51:42.611Z,9.80
2022-10-11T20:54:12.269Z,11.80
2022-10-11T20:56:40.374Z,11.05
2022-10-11T20:59:08.396Z,10.40
2022-10-11T21:01:40.272Z,15.10
2022-10-11T21:04:14.731Z,11.70
2022-10-11T21:06:42.233Z,11.43
2022-10-11T21:09:13.990Z,11.10
2022-10-11T21:11:44.147Z,10.50
2022-10-11T21:14:11.563Z,12.32
2022-10-11T21:16:39.097Z,12.50
2022-10-11T21:19:06.644Z,8.98
2022-10-11T21:21:34.618Z,13.95
2022-10-11T21:24:03.292Z,11.05
2022-10-11T21:26:31.288Z,9.55
2022-10-11T21:29:03.903Z,12.48
2022-10-11T21:31:34.285Z,16.13
2022-10-11T21:34:03.237Z,11.82
2022-10-11T21:36:30.964Z,10.35
2022-10-11T21:38:58.352Z,9.55
2022-10-11T21:41:29.999Z,12.73
2022-10-11T21:43:58.820Z,12.05
2022-10-11T21:46:54.475Z,12.15
2022-10-11T21:49:20.134Z,10.40
2022-10-11T21:51:47.602Z,8.50
2022-10-11T21:54:15.254Z,10.48
2022-10-11T21:56:42.929Z,8.93
2022-10-11T21:59:12.636Z,6.85
2022-10-11T22:01:41.742Z,9.05
2022-10-11T22:04:11.425Z,9.98
2022-10-11T22:06:39.418Z,10.27
2022-10-11T22:09:08.807Z,11.40
2022-10-11T22:11:37.217Z,10.20
2022-10-11T22:14:04.968Z,8.90
2022-10-11T22:16:34.728Z,13.02
2022-10-11T22:19:02.537Z,9.75
2022-10-11T22:21:30.012Z,10.98
2022-10-11T22:23:57.494Z,10.38
2022-10-11T22:26:30.564Z,13.02
2022-10-11T22:29:00.216Z,12.30
2022-10-11T22:31:29.361Z,18.17
2022-10-11T22:33:59.747Z,15.55
2022-10-11T22:36:30.619Z,10.30
2022-10-11T22:38:59.118Z,15.13
2022-10-11T22:41:26.628Z,13.10
2022-10-11T22:43:54.083Z,10.38
2022-10-11T22:46:21.534Z,10.90
2022-10-11T22:48:49.009Z,14.02
2022-10-11T22:51:17.124Z,9.43
2022-10-11T22:53:44.862Z,11.98
2022-10-11T22:56:12.275Z,12.27
2022-10-11T22:58:40.641Z,10.77
2022-10-11T23:01:11.059Z,12.50
2022-10-11T23:03:38.916Z,12.57
2022-10-11T23:06:06.497Z,11.82
2022-10-11T23:08:34.050Z,10.82
2022-10-11T23:11:07.279Z,10.10
2022-10-11T23:13:35.187Z,10.20
2022-10-11T23:16:09.245Z,10.40
2022-10-11T23:18:37.532Z,10.52
2022-10-11T23:21:07.129Z,9.60
2022-10-11T23:23:35.384Z,14.18
2022-10-11T23:26:10.660Z,9.15
2022-10-11T23:28:38.314Z,9.20
2022-10-11T23:31:16.506Z,12.40
2022-10-11T23:33:46.889Z,13.65
2022-10-11T23:36:22.134Z,9.85
2022-10-11T23:38:54.092Z,9.65
2022-10-11T23:41:24.210Z,11.68
2022-10-11T23:43:51.912Z,10.27
2022-10-11T23:46:19.430Z,9.60
2022-10-11T23:48:48.283Z,8.02
2022-10-11T23:51:16.316Z,7.78
2022-10-11T23:53:43.781Z,9.38
2022-10-11T23:56:11.896Z,13.23
2022-10-11T23:58:39.561Z,12.75
